createdAt,value
2022-08-28T00:01:21.811Z,18.27
2022-08-28T00:03:48.340Z,18.18
2022-08-28T00:06:14.885Z,18.14
2022-08-28T00:08:41.692Z,18.16
2022-08-28T00:11:08.221Z,18.15
2022-08-28T00:13:34.761Z,18.10
2022-08-28T00:16:02.241Z,18.14
2022-08-28T00:18:31.219Z,18.09
2022-08-28T00:20:58.949Z,18.15
2022-08-28T00:23:25.962Z,18.07
2022-08-28T00:26:06.889Z,18.20
2022-08-28T00:28:33.334Z,18.39
2022-08-28T00:31:00.125Z,18.10
2022-08-28T00:33:30.243Z,18.11
2022-08-28T00:35:58.007Z,18.22
2022-08-28T00:38:27.187Z,17.98
2022-08-28T00:40:58.256Z,18.03
2022-08-28T00:43:33.985Z,18.00
2022-08-28T00:46:03.650Z,18.01
2022-08-28T00:48:30.801Z,17.99
2022-08-28T00:51:17.035Z,17.96
2022-08-28T00:53:44.276Z,17.92
2022-08-28T00:56:14.015Z,18.02
2022-08-28T00:58:44.732Z,17.98
2022-08-28T01:01:12.259Z,17.93
2022-08-28T01:03:38.872Z,17.93
2022-08-28T01:06:05.614Z,18.10
2022-08-28T01:08:33.303Z,18.12
2022-08-28T01:11:04.342Z,17.99
2022-08-28T01:13:31.651Z,17.98
2022-08-28T01:15:59.871Z,18.18
2022-08-28T01:18:27.910Z,18.06
2022-08-28T01:21:01.943Z,18.06
2022-08-28T01:23:48.691Z,18.06
2022-08-28T01:26:15.296Z,18.17
2022-08-28T01:28:41.750Z,18.36
2022-08-28T01:31:13.545Z,18.08
2022-08-28T01:33:42.596Z,17.99
2022-08-28T01:36:12.033Z,17.99
2022-08-28T01:38:39.922Z,17.95
2022-08-28T01:41:06.621Z,18.13
2022-08-28T01:43:33.213Z,18.11
2022-08-28T01:46:02.201Z,18.07
2022-08-28T01:48:30.715Z,18.13
2022-08-28T01:50:57.280Z,18.07
2022-08-28T01:53:25.807Z,17.94
2022-08-28T01:56:00.996Z,17.99
2022-08-28T01:58:28.385Z,17.89
2022-08-28T02:00:57.477Z,17.88
2022-08-28T02:03:24.286Z,18.01
2022-08-28T02:05:51.283Z,17.95
2022-08-28T02:08:18.261Z,17.88
2022-08-28T02:10:45.336Z,18.02
2022-08-28T02:13:12.770Z,17.80
2022-08-28T02:15:41.885Z,17.80
2022-08-28T02:18:09.326Z,17.98
2022-08-28T02:20:36.434Z,17.99
2022-08-28T02:23:03.799Z,17.93
2022-08-28T02:25:30.551Z,17.88
2022-08-28T02:27:57.187Z,17.85
2022-08-28T02:30:23.768Z,17.88
2022-08-28T02:32:51.343Z,17.88
2022-08-28T02:35:19.516Z,17.93
2022-08-28T02:37:47.588Z,17.96
2022-08-28T02:40:15.983Z,17.93
2022-08-28T02:42:43.040Z,17.90
2022-08-28T02:45:11.699Z,17.85
2022-08-28T02:47:43.966Z,17.90
2022-08-28T02:50:14.222Z,17.92
2022-08-28T02:52:41.378Z,17.96
2022-08-28T02:55:10.307Z,17.96
2022-08-28T02:57:37.125Z,18.15
2022-08-28T03:00:14.178Z,18.04
2022-08-28T03:02:42.339Z,18.01
2022-08-28T03:05:10.310Z,18.21
2022-08-28T03:07:36.830Z,18.01
2022-08-28T03:10:05.152Z,17.92
2022-08-28T03:12:32.056Z,18.05
2022-08-28T03:14:58.745Z,18.09
2022-08-28T03:17:25.723Z,18.03
2022-08-28T03:19:52.615Z,17.94
2022-08-28T03:22:39.957Z,17.94
2022-08-28T03:25:07.233Z,17.97
2022-08-28T03:27:33.811Z,18.07
2022-08-28T03:30:00.252Z,17.99
2022-08-28T03:32:26.870Z,17.97
2022-08-28T03:34:55.863Z,17.91
2022-08-28T03:37:22.494Z,17.84
2022-08-28T03:39:49.276Z,17.94
2022-08-28T03:42:15.989Z,17.98
2022-08-28T03:44:42.471Z,18.15
2022-08-28T03:47:09.119Z,17.99
2022-08-28T03:49:36.828Z,18.07
2022-08-28T03:52:03.418Z,17.81
2022-08-28T03:54:31.718Z,17.77
2022-08-28T03:56:58.555Z,17.94
2022-08-28T03:59:26.123Z,17.93
2022-08-28T04:01:58.196Z,17.88
2022-08-28T04:04:24.761Z,17.94
2022-08-28T04:06:51.183Z,17.93
2022-08-28T04:09:17.711Z,17.86
2022-08-28T04:11:44.261Z,17.84
2022-08-28T04:14:11.810Z,17.84
2022-08-28T04:16:38.581Z,17.81
2022-08-28T04:19:05.205Z,17.78
2022-08-28T04:21:31.658Z,17.84
2022-08-28T04:23:58.299Z,17.65
2022-08-28T04:26:25.987Z,17.94
2022-08-28T04:28:53.617Z,17.73
2022-08-28T04:31:31.603Z,17.62
2022-08-28T04:34:05.406Z,17.85
2022-08-28T04:36:33.767Z,17.72
2022-08-28T04:39:01.373Z,17.59
2022-08-28T04:41:29.891Z,17.60
2022-08-28T04:43:57.433Z,17.68
2022-08-28T04:46:24.408Z,17.74
2022-08-28T04:48:51.022Z,17.71
2022-08-28T04:51:17.472Z,17.73
2022-08-28T04:53:44.262Z,17.74
2022-08-28T04:56:13.635Z,17.75
2022-08-28T04:58:41.907Z,17.71
2022-08-28T05:01:20.537Z,17.61
2022-08-28T05:03:51.839Z,17.74
2022-08-28T05:06:18.355Z,17.70
2022-08-28T05:08:44.873Z,17.73
2022-08-28T05:11:13.743Z,17.71
2022-08-28T05:13:54.524Z,17.75
2022-08-28T05:16:21.965Z,17.63
2022-08-28T05:18:49.731Z,17.64
2022-08-28T05:21:22.285Z,17.70
2022-08-28T05:23:51.332Z,17.67
2022-08-28T05:26:19.845Z,17.71
2022-08-28T05:28:49.785Z,17.85
2022-08-28T05:31:19.228Z,17.99
2022-08-28T05:33:47.422Z,17.89
2022-08-28T05:36:15.389Z,17.90
2022-08-28T05:38:42.356Z,17.91
2022-08-28T05:41:08.872Z,17.89
2022-08-28T05:43:36.118Z,17.93
2022-08-28T05:46:07.487Z,17.82
2022-08-28T05:48:37.192Z,17.91
2022-08-28T05:51:08.070Z,17.97
2022-08-28T05:53:35.967Z,17.92
2022-08-28T05:56:05.732Z,17.77
2022-08-28T05:58:33.514Z,17.82
2022-08-28T06:01:21.498Z,17.80
2022-08-28T06:03:54.979Z,17.98
2022-08-28T06:06:24.466Z,17.94
2022-08-28T06:08:59.971Z,18.20
2022-08-28T06:11:30.971Z,18.02
2022-08-28T06:14:02.741Z,18.14
2022-08-28T06:16:31.640Z,18.17
2022-08-28T06:18:58.680Z,18.29
2022-08-28T06:21:25.198Z,18.06
2022-08-28T06:23:51.897Z,18.19
2022-08-28T06:26:18.853Z,18.19
2022-08-28T06:28:45.418Z,18.35
2022-08-28T06:31:24.578Z,18.36
2022-08-28T06:33:58.321Z,18.85
2022-08-28T06:36:27.586Z,18.94
2022-08-28T06:38:55.312Z,18.79
2022-08-28T06:41:21.973Z,18.60
2022-08-28T06:43:48.500Z,18.89
2022-08-28T06:46:15.278Z,19.01
2022-08-28T06:48:41.979Z,18.54
2022-08-28T06:51:09.562Z,18.96
2022-08-28T06:53:37.648Z,19.01
2022-08-28T06:56:08.438Z,18.78
2022-08-28T06:58:37.603Z,19.00
2022-08-28T07:01:22.882Z,18.79
2022-08-28T07:03:52.146Z,18.75
2022-08-28T07:06:19.741Z,18.62
2022-08-28T07:08:46.383Z,18.72
2022-08-28T07:11:22.154Z,18.67
2022-08-28T07:13:53.565Z,18.67
2022-08-28T07:16:22.114Z,18.62
2022-08-28T07:18:48.705Z,18.91
2022-08-28T07:21:15.214Z,18.97
2022-08-28T07:23:42.986Z,18.92
2022-08-28T07:26:12.957Z,19.31
2022-08-28T07:28:39.663Z,19.19
2022-08-28T07:31:13.306Z,19.56
2022-08-28T07:33:41.132Z,19.93
2022-08-28T07:36:29.168Z,19.48
2022-08-28T07:38:59.255Z,19.44
2022-08-28T07:41:30.903Z,19.36
2022-08-28T07:44:16.219Z,19.53
2022-08-28T07:46:43.417Z,19.73
2022-08-28T07:49:10.971Z,20.01
2022-08-28T07:51:37.791Z,20.02
2022-08-28T07:54:04.882Z,19.72
2022-08-28T07:56:32.424Z,19.97
2022-08-28T07:59:00.552Z,19.95
2022-08-28T08:01:28.903Z,20.20
2022-08-28T08:04:01.800Z,20.59
2022-08-28T08:06:33.804Z,20.47
2022-08-28T08:09:02.134Z,20.35
2022-08-28T08:11:32.455Z,20.45
2022-08-28T08:14:05.522Z,20.54
2022-08-28T08:16:39.239Z,21.02
2022-08-28T08:19:06.353Z,21.07
2022-08-28T08:21:33.028Z,20.88
2022-08-28T08:23:59.599Z,21.06
2022-08-28T08:26:28.247Z,21.31
2022-08-28T08:28:56.191Z,21.10
2022-08-28T08:31:28.459Z,21.17
2022-08-28T08:33:58.603Z,21.70
2022-08-28T08:36:26.576Z,21.63
2022-08-28T08:38:59.307Z,21.94
2022-08-28T08:41:31.853Z,21.91
2022-08-28T08:44:15.570Z,22.03
2022-08-28T08:47:13.807Z,21.43
2022-08-28T08:49:49.329Z,21.64
2022-08-28T08:52:29.040Z,21.78
2022-08-28T08:55:14.968Z,22.30
2022-08-28T08:57:44.446Z,22.31
2022-08-28T09:00:17.274Z,22.76
2022-08-28T09:02:52.997Z,22.54
2022-08-28T09:05:24.745Z,23.08
2022-08-28T09:07:58.944Z,23.05
2022-08-28T09:10:41.212Z,23.15
2022-08-28T09:13:43.352Z,23.73
2022-08-28T09:16:24.032Z,23.72
2022-08-28T09:18:51.033Z,23.18
2022-08-28T09:21:29.547Z,22.88
2022-08-28T09:24:00.418Z,22.48
2022-08-28T09:26:27.763Z,23.04
2022-08-28T09:29:06.231Z,22.58
2022-08-28T09:31:39.379Z,22.23
2022-08-28T09:34:24.715Z,22.79
2022-08-28T09:36:53.004Z,23.28
2022-08-28T09:39:23.790Z,22.98
2022-08-28T09:42:32.941Z,22.48
2022-08-28T09:45:09.107Z,23.19
2022-08-28T09:47:46.517Z,23.14
2022-08-28T09:50:21.551Z,22.51
2022-08-28T09:52:48.532Z,22.19
2022-08-28T09:55:33.396Z,23.23
2022-08-28T09:58:00.880Z,22.03
2022-08-28T10:00:33.827Z,22.47
2022-08-28T10:03:26.068Z,22.15
2022-08-28T10:06:02.800Z,22.20
2022-08-28T10:09:10.923Z,22.49
2022-08-28T10:11:49.399Z,22.93
2022-08-28T10:14:38.260Z,23.59
2022-08-28T10:17:21.563Z,23.46
2022-08-28T10:20:03.738Z,23.88
2022-08-28T10:22:44.630Z,24.12
2022-08-28T10:25:17.203Z,23.39
2022-08-28T10:28:24.743Z,23.26
2022-08-28T10:31:20.248Z,23.90
2022-08-28T10:33:55.694Z,23.10
2022-08-28T10:36:34.787Z,23.14
2022-08-28T10:39:32.731Z,23.16
2022-08-28T10:42:03.374Z,22.79
2022-08-28T10:44:40.572Z,23.07
2022-08-28T10:47:08.625Z,23.33
2022-08-28T10:49:39.717Z,23.57
2022-08-28T10:52:27.565Z,23.44
2022-08-28T10:55:02.497Z,23.34
2022-08-28T10:57:39.689Z,23.51
2022-08-28T11:00:14.661Z,23.44
2022-08-28T11:02:47.118Z,24.03
2022-08-28T11:05:14.759Z,24.19
2022-08-28T11:07:47.399Z,23.49
2022-08-28T11:10:38.694Z,23.77
2022-08-28T11:13:07.390Z,23.87
2022-08-28T11:15:37.003Z,23.91
2022-08-28T11:18:38.189Z,23.94
2022-08-28T11:21:25.238Z,24.30
2022-08-28T11:24:17.858Z,24.51
2022-08-28T11:27:19.385Z,24.12
2022-08-28T11:30:16.740Z,24.32
2022-08-28T11:33:06.719Z,24.10
2022-08-28T11:35:48.363Z,23.47
2022-08-28T11:38:42.665Z,23.73
2022-08-28T11:41:32.100Z,23.65
2022-08-28T11:44:13.630Z,23.07
2022-08-28T11:46:42.850Z,23.70
2022-08-28T11:49:32.787Z,23.73
2022-08-28T11:52:20.834Z,24.34
2022-08-28T11:54:54.265Z,24.56
2022-08-28T11:57:52.919Z,24.80
2022-08-28T12:00:28.864Z,25.12
2022-08-28T12:03:15.472Z,25.11
2022-08-28T12:05:45.587Z,25.31
2022-08-28T12:08:13.568Z,24.86
2022-08-28T12:10:52.767Z,24.21
2022-08-28T12:13:56.369Z,23.41
2022-08-28T12:16:22.885Z,23.68
2022-08-28T12:18:49.389Z,23.97
2022-08-28T12:21:25.444Z,24.15
2022-08-28T12:23:58.101Z,23.82
2022-08-28T12:26:30.065Z,24.19
2022-08-28T12:29:04.403Z,23.92
2022-08-28T12:32:11.290Z,23.60
2022-08-28T12:34:59.423Z,24.60
2022-08-28T12:37:52.436Z,24.67
2022-08-28T12:40:41.755Z,24.62
2022-08-28T12:43:11.219Z,24.56
2022-08-28T12:45:59.238Z,24.08
2022-08-28T12:48:33.481Z,24.10
2022-08-28T12:51:14.847Z,23.87
2022-08-28T12:53:51.364Z,23.98
2022-08-28T12:56:20.677Z,23.70
2022-08-28T12:58:48.359Z,24.26
2022-08-28T13:01:17.029Z,24.10
2022-08-28T13:03:50.738Z,23.89
2022-08-28T13:06:32.757Z,24.26
2022-08-28T13:09:14.014Z,24.50
2022-08-28T13:11:46.642Z,24.31
2022-08-28T13:14:13.400Z,24.42
2022-08-28T13:16:47.467Z,24.65
2022-08-28T13:19:33.587Z,24.19
2022-08-28T13:22:03.818Z,24.23
2022-08-28T13:24:46.194Z,24.33
2022-08-28T13:27:12.945Z,24.75
2022-08-28T13:30:20.834Z,24.48
2022-08-28T13:33:02.797Z,24.55
2022-08-28T13:35:39.069Z,24.33
2022-08-28T13:38:08.788Z,24.24
2022-08-28T13:41:00.636Z,23.88
2022-08-28T13:43:42.612Z,24.11
2022-08-28T13:46:09.109Z,24.08
2022-08-28T13:48:35.672Z,24.26
2022-08-28T13:51:07.637Z,24.43
2022-08-28T13:53:37.704Z,23.92
2022-08-28T13:56:05.015Z,24.12
2022-08-28T13:58:31.526Z,23.96
2022-08-28T14:00:58.711Z,24.30
2022-08-28T14:03:38.030Z,24.83
2022-08-28T14:06:14.099Z,25.09
2022-08-28T14:08:42.046Z,24.82
2022-08-28T14:11:08.849Z,24.71
2022-08-28T14:13:39.855Z,24.43
2022-08-28T14:16:07.598Z,24.82
2022-08-28T14:18:34.663Z,24.83
2022-08-28T14:21:03.937Z,25.17
2022-08-28T14:23:30.423Z,25.14
2022-08-28T14:25:57.425Z,24.60
2022-08-28T14:28:24.015Z,24.21
2022-08-28T14:30:52.071Z,23.42
2022-08-28T14:33:20.773Z,23.58
2022-08-28T14:35:48.857Z,23.33
2022-08-28T14:38:15.913Z,23.29
2022-08-28T14:40:44.065Z,23.61
2022-08-28T14:43:13.255Z,23.41
2022-08-28T14:45:45.687Z,23.11
2022-08-28T14:48:12.603Z,23.25
2022-08-28T14:50:43.931Z,23.30
2022-08-28T14:53:10.951Z,23.25
2022-08-28T14:55:46.881Z,23.28
2022-08-28T14:58:14.430Z,23.66
2022-08-28T15:00:43.537Z,23.88
2022-08-28T15:03:10.599Z,23.73
2022-08-28T15:05:37.283Z,23.35
2022-08-28T15:08:07.790Z,23.54
2022-08-28T15:10:34.660Z,23.64
2022-08-28T15:13:01.354Z,24.02
2022-08-28T15:15:28.117Z,23.58
2022-08-28T15:17:54.600Z,23.94
2022-08-28T15:20:22.043Z,24.14
2022-08-28T15:22:48.732Z,23.69
2022-08-28T15:25:15.311Z,23.75
2022-08-28T15:27:41.828Z,23.63
2022-08-28T15:30:08.630Z,23.70
2022-08-28T15:32:35.197Z,23.74
2022-08-28T15:35:01.669Z,23.36
2022-08-28T15:37:29.348Z,23.01
2022-08-28T15:40:16.800Z,23.41
2022-08-28T15:42:44.478Z,23.46
2022-08-28T15:45:12.206Z,23.00
2022-08-28T15:47:38.719Z,22.75
2022-08-28T15:50:05.846Z,22.81
2022-08-28T15:52:33.037Z,22.83
2022-08-28T15:54:59.545Z,22.61
2022-08-28T15:57:25.996Z,22.74
2022-08-28T15:59:52.606Z,22.61
2022-08-28T16:02:22.464Z,22.93
2022-08-28T16:04:49.345Z,22.64
2022-08-28T16:07:17.358Z,22.86
2022-08-28T16:09:43.842Z,22.84
2022-08-28T16:12:10.258Z,22.91
2022-08-28T16:14:36.803Z,22.86
2022-08-28T16:17:06.007Z,22.57
2022-08-28T16:19:38.412Z,22.65
2022-08-28T16:22:05.325Z,22.51
2022-08-28T16:24:31.822Z,22.42
2022-08-28T16:26:58.285Z,22.34
2022-08-28T16:29:24.779Z,22.33
2022-08-28T16:31:51.414Z,22.27
2022-08-28T16:34:19.506Z,22.17
2022-08-28T16:36:50.225Z,22.42
2022-08-28T16:39:17.449Z,22.59
2022-08-28T16:41:49.648Z,22.53
2022-08-28T16:44:24.450Z,22.61
2022-08-28T16:46:51.222Z,22.40
2022-08-28T16:49:18.021Z,22.31
2022-08-28T16:51:44.596Z,22.15
2022-08-28T16:54:11.028Z,22.00
2022-08-28T16:56:37.543Z,22.13
2022-08-28T16:59:04.390Z,21.82
2022-08-28T17:01:36.955Z,21.94
2022-08-28T17:04:03.823Z,21.73
2022-08-28T17:06:31.603Z,21.77
2022-08-28T17:08:58.749Z,21.77
2022-08-28T17:11:27.075Z,21.64
2022-08-28T17:13:55.263Z,21.47
2022-08-28T17:16:23.850Z,21.46
2022-08-28T17:18:52.217Z,21.39
2022-08-28T17:21:39.049Z,21.21
2022-08-28T17:24:06.790Z,21.03
2022-08-28T17:26:33.602Z,21.20
2022-08-28T17:29:00.161Z,21.12
2022-08-28T17:31:26.642Z,20.99
2022-08-28T17:33:53.293Z,21.06
2022-08-28T17:36:32.455Z,21.05
2022-08-28T17:39:01.555Z,20.98
2022-08-28T17:41:28.115Z,20.86
2022-08-28T17:43:54.546Z,20.93
2022-08-28T17:46:21.119Z,20.84
2022-08-28T17:48:54.382Z,20.91
2022-08-28T17:51:33.178Z,20.67
2022-08-28T17:54:10.928Z,20.65
2022-08-28T17:56:37.464Z,20.56
2022-08-28T17:59:04.750Z,20.38
2022-08-28T18:01:31.261Z,20.24
2022-08-28T18:03:57.751Z,20.30
2022-08-28T18:06:24.951Z,20.17
2022-08-28T18:08:51.918Z,20.05
2022-08-28T18:11:19.093Z,19.85
2022-08-28T18:13:46.287Z,19.85
2022-08-28T18:16:12.904Z,19.71
2022-08-28T18:18:39.508Z,19.56
2022-08-28T18:21:05.990Z,19.43
2022-08-28T18:23:32.756Z,19.29
2022-08-28T18:25:59.356Z,19.19
2022-08-28T18:28:26.605Z,19.11
2022-08-28T18:30:53.844Z,18.94
2022-08-28T18:33:23.555Z,18.84
2022-08-28T18:35:51.781Z,18.85
2022-08-28T18:38:20.710Z,18.81
2022-08-28T18:40:47.782Z,18.71
2022-08-28T18:43:14.252Z,18.61
2022-08-28T18:45:40.948Z,18.52
2022-08-28T18:48:10.407Z,18.48
2022-08-28T18:50:37.957Z,18.32
2022-08-28T18:53:05.308Z,18.32
2022-08-28T18:55:32.710Z,18.23
2022-08-28T18:58:00.928Z,18.18
2022-08-28T19:00:29.571Z,18.16
2022-08-28T19:02:56.212Z,18.06
2022-08-28T19:05:23.305Z,18.00
2022-08-28T19:07:50.310Z,17.98
2022-08-28T19:10:32.640Z,17.98
2022-08-28T19:13:00.867Z,17.88
2022-08-28T19:15:28.210Z,17.91
2022-08-28T19:17:54.725Z,17.90
2022-08-28T19:20:21.453Z,17.82
2022-08-28T19:22:48.751Z,17.78
2022-08-28T19:25:28.138Z,17.61
2022-08-28T19:27:59.872Z,17.72
2022-08-28T19:30:32.818Z,17.64
2022-08-28T19:33:01.537Z,17.65
2022-08-28T19:35:28.345Z,17.63
2022-08-28T19:37:54.833Z,17.55
2022-08-28T19:40:22.519Z,17.44
2022-08-28T19:42:49.985Z,17.51
2022-08-28T19:45:16.850Z,17.43
2022-08-28T19:47:43.346Z,17.43
2022-08-28T19:50:11.681Z,17.34
2022-08-28T19:52:38.565Z,17.34
2022-08-28T19:55:06.587Z,17.20
2022-08-28T19:57:34.374Z,17.32
2022-08-28T20:00:02.016Z,17.27
2022-08-28T20:02:30.963Z,17.20
2022-08-28T20:04:57.555Z,17.17
2022-08-28T20:07:24.964Z,17.12
2022-08-28T20:09:52.139Z,16.96
2022-08-28T20:12:19.359Z,17.02
2022-08-28T20:14:46.040Z,16.99
2022-08-28T20:17:13.865Z,17.06
2022-08-28T20:19:40.511Z,16.87
2022-08-28T20:22:06.905Z,16.78
2022-08-28T20:24:33.389Z,16.76
2022-08-28T20:26:59.928Z,16.77
2022-08-28T20:29:26.382Z,16.74
2022-08-28T20:31:53.119Z,16.69
2022-08-28T20:34:19.867Z,16.66
2022-08-28T20:36:46.576Z,16.65
2022-08-28T20:39:13.106Z,16.57
2022-08-28T20:41:41.096Z,16.63
2022-08-28T20:44:10.418Z,16.63
2022-08-28T20:46:41.354Z,16.51
2022-08-28T20:49:12.497Z,16.55
2022-08-28T20:51:53.166Z,16.42
2022-08-28T20:54:29.246Z,16.43
2022-08-28T20:56:58.076Z,16.47
2022-08-28T20:59:28.889Z,16.35
2022-08-28T21:02:10.937Z,16.31
2022-08-28T21:04:39.767Z,16.28
2022-08-28T21:07:06.370Z,16.27
2022-08-28T21:09:39.611Z,16.31
2022-08-28T21:12:19.910Z,16.27
2022-08-28T21:14:51.539Z,16.23
2022-08-28T21:17:20.858Z,16.16
2022-08-28T21:19:55.818Z,16.09
2022-08-28T21:22:22.360Z,16.10
2022-08-28T21:24:48.839Z,16.08
2022-08-28T21:27:15.524Z,15.99
2022-08-28T21:29:45.868Z,16.06
2022-08-28T21:32:13.073Z,16.04
2022-08-28T21:34:39.610Z,15.93
2022-08-28T21:37:06.561Z,15.91
2022-08-28T21:39:33.407Z,15.96
2022-08-28T21:42:00.125Z,15.83
2022-08-28T21:44:26.723Z,15.80
2022-08-28T21:46:53.480Z,15.81
2022-08-28T21:49:20.021Z,15.80
2022-08-28T21:51:47.485Z,15.79
2022-08-28T21:54:14.175Z,15.71
2022-08-28T21:56:40.867Z,15.81
2022-08-28T21:59:07.297Z,15.78
2022-08-28T22:03:09.485Z,15.65
2022-08-28T22:05:36.414Z,15.62
2022-08-28T22:08:02.966Z,15.59
2022-08-28T22:10:29.570Z,15.62
2022-08-28T22:12:56.481Z,15.61
2022-08-28T22:15:23.919Z,15.61
2022-08-28T22:17:50.948Z,15.65
2022-08-28T22:20:18.306Z,15.61
2022-08-28T22:23:03.264Z,15.52
2022-08-28T22:25:29.923Z,15.54
2022-08-28T22:27:56.996Z,15.46
2022-08-28T22:30:23.802Z,15.47
2022-08-28T22:32:50.938Z,15.41
2022-08-28T22:35:19.093Z,15.35
2022-08-28T22:37:46.327Z,15.42
2022-08-28T22:40:13.828Z,15.38
2022-08-28T22:42:41.122Z,15.41
2022-08-28T22:45:09.522Z,15.35
2022-08-28T22:47:36.387Z,15.33
2022-08-28T22:50:04.640Z,15.26
2022-08-28T22:52:31.341Z,15.32
2022-08-28T22:54:58.218Z,15.30
2022-08-28T22:57:24.890Z,15.31
2022-08-28T22:59:51.300Z,15.27
2022-08-28T23:02:19.440Z,15.25
2022-08-28T23:04:46.108Z,15.31
2022-08-28T23:07:18.726Z,15.29
2022-08-28T23:09:45.158Z,15.31
2022-08-28T23:12:11.801Z,15.12
2022-08-28T23:14:38.285Z,15.15
2022-08-28T23:17:04.920Z,15.11
2022-08-28T23:19:31.423Z,15.06
2022-08-28T23:21:58.286Z,14.95
2022-08-28T23:24:24.834Z,15.03
2022-08-28T23:26:51.376Z,15.06
2022-08-28T23:29:17.906Z,14.99
2022-08-28T23:31:44.642Z,14.97
2022-08-28T23:34:11.358Z,14.96
2022-08-28T23:36:39.638Z,14.91
2022-08-28T23:39:10.249Z,14.89
2022-08-28T23:41:37.668Z,14.88
2022-08-28T23:44:08.532Z,14.76
2022-08-28T23:46:36.479Z,14.81
2022-08-28T23:49:03.622Z,14.79
2022-08-28T23:51:31.030Z,14.75
2022-08-28T23:53:57.731Z,14.81
2022-08-28T23:56:28.207Z,14.78
2022-08-28T23:58:54.846Z,14.67
